createdAt,value
2023-01-13T00:01:26.328Z,44.24
2023-01-13T00:03:53.879Z,44.26
2023-01-13T00:06:25.814Z,44.25
2023-01-13T00:08:54.037Z,44.28
2023-01-13T00:11:22.218Z,44.20
2023-01-13T00:13:49.464Z,44.28
2023-01-13T00:16:18.220Z,44.21
2023-01-13T00:18:46.522Z,44.23
2023-01-13T00:21:15.064Z,44.15
2023-01-13T00:23:43.458Z,44.25
2023-01-13T00:26:16.122Z,44.09
2023-01-13T00:28:43.605Z,44.08
2023-01-13T00:31:12.540Z,44.22
2023-01-13T00:33:40.216Z,44.52
2023-01-13T00:36:09.161Z,44.38
2023-01-13T00:38:37.797Z,44.20
2023-01-13T00:41:07.969Z,44.08
2023-01-13T00:43:36.773Z,44.40
2023-01-13T00:46:06.096Z,44.23
2023-01-13T00:48:34.223Z,44.14
2023-01-13T00:51:06.461Z,44.34
2023-01-13T00:53:39.438Z,44.33
2023-01-13T00:56:19.991Z,44.42
2023-01-13T00:58:52.201Z,44.48
2023-01-13T01:01:22.370Z,44.41
2023-01-13T01:03:54.641Z,44.37
2023-01-13T01:06:24.890Z,44.42
2023-01-13T01:08:53.896Z,44.42
2023-01-13T01:11:24.232Z,44.45
2023-01-13T01:13:52.796Z,44.39
2023-01-13T01:16:21.788Z,44.55
2023-01-13T01:18:50.952Z,44.49
2023-01-13T01:21:19.070Z,44.39
2023-01-13T01:23:46.413Z,44.28
2023-01-13T01:26:15.531Z,44.50
2023-01-13T01:28:43.542Z,44.41
2023-01-13T01:31:17.904Z,44.42
2023-01-13T01:33:48.794Z,44.62
2023-01-13T01:36:19.808Z,44.62
2023-01-13T01:38:47.687Z,44.69
2023-01-13T01:41:17.727Z,44.67
2023-01-13T01:44:08.485Z,44.63
2023-01-13T01:46:44.307Z,44.70
2023-01-13T01:49:23.677Z,44.58
2023-01-13T01:51:57.729Z,44.73
2023-01-13T01:54:38.876Z,44.63
2023-01-13T01:57:11.399Z,44.72
2023-01-13T01:59:39.456Z,44.72
2023-01-13T02:02:08.199Z,44.85
2023-01-13T02:04:40.653Z,44.76
2023-01-13T02:07:08.223Z,44.74
2023-01-13T02:09:36.796Z,44.68
2023-01-13T02:12:22.963Z,44.79
2023-01-13T02:14:50.245Z,44.79
2023-01-13T02:17:32.384Z,44.93
2023-01-13T02:20:34.015Z,44.92
2023-01-13T02:23:48.932Z,44.93
2023-01-13T02:26:16.105Z,44.97
2023-01-13T02:29:37.059Z,44.81
2023-01-13T02:32:20.461Z,44.77
2023-01-13T02:34:55.132Z,44.84
2023-01-13T02:37:29.499Z,44.85
2023-01-13T02:40:01.593Z,44.88
2023-01-13T02:42:57.187Z,44.97
2023-01-13T02:45:28.347Z,44.93
2023-01-13T02:47:58.550Z,44.89
2023-01-13T02:50:32.530Z,44.94
2023-01-13T02:53:05.955Z,44.90
2023-01-13T02:55:46.909Z,45.06
2023-01-13T02:58:20.065Z,45.06
2023-01-13T03:00:49.178Z,45.02
2023-01-13T03:03:16.609Z,45.04
2023-01-13T03:05:46.429Z,44.96
2023-01-13T03:08:21.535Z,45.12
2023-01-13T03:10:54.274Z,45.14
2023-01-13T03:13:27.532Z,45.04
2023-01-13T03:16:08.405Z,45.05
2023-01-13T03:18:45.517Z,45.07
2023-01-13T03:21:34.428Z,45.06
2023-01-13T03:24:02.290Z,45.15
2023-01-13T03:26:55.248Z,45.14
2023-01-13T03:29:36.261Z,45.13
2023-01-13T03:32:15.319Z,45.11
2023-01-13T03:34:50.347Z,45.17
2023-01-13T03:37:22.335Z,45.18
2023-01-13T03:39:57.472Z,45.11
2023-01-13T03:42:28.651Z,45.30
2023-01-13T03:45:10.144Z,45.35
2023-01-13T03:47:55.754Z,45.22
2023-01-13T03:50:28.461Z,45.08
2023-01-13T03:53:01.187Z,45.11
2023-01-13T03:55:36.574Z,45.13
2023-01-13T03:58:14.456Z,45.13
2023-01-13T04:00:55.163Z,45.21
2023-01-13T04:03:42.438Z,45.13
2023-01-13T04:06:16.998Z,45.16
2023-01-13T04:08:52.845Z,45.13
2023-01-13T04:11:30.811Z,45.01
2023-01-13T04:14:00.111Z,45.04
2023-01-13T04:16:27.622Z,45.11
2023-01-13T04:18:55.156Z,45.10
2023-01-13T04:21:22.619Z,45.11
2023-01-13T04:23:51.526Z,45.08
2023-01-13T04:26:19.769Z,45.03
2023-01-13T04:28:47.101Z,45.05
2023-01-13T04:31:14.745Z,45.18
2023-01-13T04:33:42.108Z,45.28
2023-01-13T04:36:09.523Z,45.30
2023-01-13T04:38:36.857Z,45.20
2023-01-13T04:41:04.262Z,45.24
2023-01-13T04:43:31.539Z,45.34
2023-01-13T04:45:58.814Z,45.38
2023-01-13T04:48:26.047Z,45.38
2023-01-13T04:50:53.339Z,45.44
2023-01-13T04:53:20.618Z,45.23
2023-01-13T04:55:49.772Z,45.29
2023-01-13T04:58:17.068Z,45.44
2023-01-13T05:00:44.395Z,45.35
2023-01-13T05:03:11.687Z,45.37
2023-01-13T05:05:38.999Z,45.51
2023-01-13T05:08:06.411Z,45.43
2023-01-13T05:10:33.591Z,45.47
2023-01-13T05:13:19.637Z,45.29
2023-01-13T05:16:06.814Z,45.43
2023-01-13T05:18:34.446Z,45.38
2023-01-13T05:21:01.746Z,45.47
2023-01-13T05:23:47.860Z,45.55
2023-01-13T05:26:15.091Z,45.41
2023-01-13T05:28:42.277Z,45.50
2023-01-13T05:31:09.610Z,45.34
2023-01-13T05:33:36.944Z,45.22
2023-01-13T05:36:05.792Z,45.28
2023-01-13T05:38:33.110Z,45.50
2023-01-13T05:41:19.166Z,45.30
2023-01-13T05:43:46.618Z,45.41
2023-01-13T05:46:14.969Z,45.39
2023-01-13T05:48:42.991Z,45.33
2023-01-13T05:51:11.801Z,45.45
2023-01-13T05:53:40.987Z,45.59
2023-01-13T05:56:09.349Z,45.41
2023-01-13T05:58:37.129Z,45.39
2023-01-13T06:01:07.231Z,45.38
2023-01-13T06:03:35.128Z,45.40
2023-01-13T06:06:04.171Z,45.41
2023-01-13T06:08:32.375Z,45.27
2023-01-13T06:10:59.643Z,45.44
2023-01-13T06:13:27.062Z,45.40
2023-01-13T06:15:59.311Z,45.33
2023-01-13T06:18:28.059Z,45.32
2023-01-13T06:20:55.751Z,45.21
2023-01-13T06:23:23.406Z,45.24
2023-01-13T06:26:04.403Z,45.28
2023-01-13T06:28:33.331Z,45.29
2023-01-13T06:31:05.998Z,45.37
2023-01-13T06:33:43.955Z,45.08
2023-01-13T06:36:18.809Z,45.18
2023-01-13T06:38:49.122Z,45.15
2023-01-13T06:41:17.301Z,45.25
2023-01-13T06:43:44.589Z,45.46
2023-01-13T06:46:11.897Z,45.45
2023-01-13T06:48:39.159Z,45.37
2023-01-13T06:51:06.481Z,45.28
2023-01-13T06:53:34.738Z,45.37
2023-01-13T06:56:01.996Z,45.25
2023-01-13T06:58:29.321Z,45.23
2023-01-13T07:01:00.284Z,45.31
2023-01-13T07:03:27.681Z,45.22
2023-01-13T07:05:56.196Z,45.28
2023-01-13T07:08:24.017Z,45.35
2023-01-13T07:10:51.590Z,45.19
2023-01-13T07:13:37.238Z,45.36
2023-01-13T07:16:06.689Z,45.28
2023-01-13T07:18:35.640Z,45.23
2023-01-13T07:21:08.216Z,45.29
2023-01-13T07:23:39.544Z,45.33
2023-01-13T07:26:08.846Z,45.23
2023-01-13T07:28:36.745Z,45.41
2023-01-13T07:31:04.499Z,45.39
2023-01-13T07:33:34.600Z,45.48
2023-01-13T07:36:05.076Z,45.24
2023-01-13T07:38:34.047Z,45.28
2023-01-13T07:41:22.165Z,45.37
2023-01-13T07:43:50.599Z,45.32
2023-01-13T07:46:18.972Z,45.30
2023-01-13T07:48:47.231Z,45.22
2023-01-13T07:51:14.563Z,45.33
2023-01-13T07:53:41.866Z,45.41
2023-01-13T07:56:09.424Z,45.20
2023-01-13T07:58:37.818Z,45.28
2023-01-13T08:01:13.058Z,45.28
2023-01-13T08:03:41.096Z,45.19
2023-01-13T08:06:09.825Z,45.25
2023-01-13T08:08:38.025Z,45.07
2023-01-13T08:11:07.687Z,45.18
2023-01-13T08:13:34.947Z,45.11
2023-01-13T08:16:05.207Z,45.11
2023-01-13T08:18:33.812Z,44.97
2023-01-13T08:21:03.533Z,45.14
2023-01-13T08:23:30.943Z,45.24
2023-01-13T08:26:03.197Z,45.09
2023-01-13T08:28:31.273Z,45.28
2023-01-13T08:31:07.749Z,45.30
2023-01-13T08:33:35.551Z,44.59
2023-01-13T08:36:07.644Z,43.86
2023-01-13T08:38:35.936Z,43.29
2023-01-13T08:41:36.833Z,42.88
2023-01-13T08:44:05.263Z,42.25
2023-01-13T08:46:32.653Z,42.07
2023-01-13T08:48:59.975Z,41.73
2023-01-13T08:51:27.649Z,41.52
2023-01-13T08:53:54.911Z,41.08
2023-01-13T08:56:23.381Z,42.47
2023-01-13T08:58:50.617Z,42.68
2023-01-13T09:01:21.866Z,43.70
2023-01-13T09:03:49.241Z,43.92
2023-01-13T09:06:17.139Z,43.93
2023-01-13T09:08:45.122Z,44.14
2023-01-13T09:11:38.096Z,44.08
2023-01-13T09:14:05.537Z,44.02
2023-01-13T09:16:32.883Z,43.91
2023-01-13T09:19:00.111Z,44.16
2023-01-13T09:21:27.405Z,44.01
2023-01-13T09:23:54.673Z,44.07
2023-01-13T09:26:21.927Z,44.20
2023-01-13T09:28:49.332Z,44.16
2023-01-13T09:31:16.751Z,44.10
2023-01-13T09:34:02.422Z,44.21
2023-01-13T09:36:29.780Z,44.16
2023-01-13T09:38:57.151Z,44.24
2023-01-13T09:41:45.953Z,44.21
2023-01-13T09:44:59.563Z,44.16
2023-01-13T09:47:34.046Z,44.10
2023-01-13T09:50:21.965Z,44.19
2023-01-13T09:52:49.539Z,44.23
2023-01-13T09:55:22.845Z,44.37
2023-01-13T09:57:50.351Z,44.24
2023-01-13T10:00:37.978Z,44.33
2023-01-13T10:03:23.784Z,44.47
2023-01-13T10:05:56.600Z,44.39
2023-01-13T10:08:28.317Z,44.44
2023-01-13T10:10:59.490Z,44.30
2023-01-13T10:13:30.713Z,44.23
2023-01-13T10:16:19.480Z,44.49
2023-01-13T10:18:58.988Z,44.46
2023-01-13T10:21:32.164Z,44.37
2023-01-13T10:24:04.266Z,44.35
2023-01-13T10:26:56.044Z,44.49
2023-01-13T10:29:28.737Z,44.49
2023-01-13T10:31:57.758Z,44.36
2023-01-13T10:34:26.179Z,44.44
2023-01-13T10:37:03.100Z,44.45
2023-01-13T10:39:40.890Z,44.45
2023-01-13T10:42:17.378Z,44.50
2023-01-13T10:45:19.243Z,44.39
2023-01-13T10:48:06.351Z,44.44
2023-01-13T10:50:36.284Z,44.37
2023-01-13T10:53:18.478Z,44.44
2023-01-13T10:55:59.882Z,44.53
2023-01-13T10:58:28.226Z,44.60
2023-01-13T11:01:01.127Z,44.50
2023-01-13T11:03:41.551Z,44.59
2023-01-13T11:06:19.105Z,44.46
2023-01-13T11:08:49.672Z,44.55
2023-01-13T11:11:47.470Z,44.70
2023-01-13T11:14:33.141Z,44.86
2023-01-13T11:17:05.700Z,44.75
2023-01-13T11:19:37.894Z,44.70
2023-01-13T11:22:37.566Z,44.60
2023-01-13T11:25:10.520Z,44.69
2023-01-13T11:27:58.840Z,44.55
2023-01-13T11:30:50.892Z,44.48
2023-01-13T11:34:03.578Z,44.54
2023-01-13T11:36:53.998Z,44.61
2023-01-13T11:39:49.045Z,44.65
2023-01-13T11:42:32.030Z,44.53
2023-01-13T11:45:17.382Z,44.80
2023-01-13T11:47:52.608Z,42.73
2023-01-13T11:50:34.238Z,43.59
2023-01-13T11:53:22.790Z,44.34
2023-01-13T11:55:58.939Z,44.29
2023-01-13T11:58:59.129Z,44.31
2023-01-13T12:01:54.926Z,44.35
2023-01-13T12:04:33.374Z,44.44
2023-01-13T12:07:16.443Z,44.21
2023-01-13T12:10:04.505Z,44.26
2023-01-13T12:12:37.176Z,44.35
2023-01-13T12:15:22.500Z,44.52
2023-01-13T12:18:14.728Z,44.31
2023-01-13T12:21:04.184Z,44.52
2023-01-13T12:24:13.789Z,44.49
2023-01-13T12:26:46.376Z,44.52
2023-01-13T12:29:19.708Z,44.54
2023-01-13T12:31:49.290Z,44.64
2023-01-13T12:34:42.231Z,44.53
2023-01-13T12:37:21.029Z,44.58
2023-01-13T12:39:54.154Z,44.76
2023-01-13T12:42:46.297Z,44.71
2023-01-13T12:45:13.404Z,44.70
2023-01-13T12:47:48.361Z,44.73
2023-01-13T12:50:24.878Z,44.91
2023-01-13T12:53:19.436Z,44.74
2023-01-13T12:55:52.119Z,44.92
2023-01-13T12:58:28.176Z,44.72
2023-01-13T13:01:13.095Z,44.83
2023-01-13T13:03:41.547Z,44.81
2023-01-13T13:06:21.934Z,44.75
2023-01-13T13:09:04.500Z,44.77
2023-01-13T13:11:57.937Z,44.76
2023-01-13T13:14:37.370Z,44.94
2023-01-13T13:17:25.520Z,44.99
2023-01-13T13:19:52.847Z,44.69
2023-01-13T13:22:29.824Z,44.64
2023-01-13T13:24:59.667Z,44.68
2023-01-13T13:27:45.456Z,44.63
2023-01-13T13:30:36.428Z,44.59
2023-01-13T13:33:39.232Z,44.62
2023-01-13T13:36:30.215Z,44.62
2023-01-13T13:39:22.017Z,44.63
2023-01-13T13:42:12.595Z,44.68
2023-01-13T13:45:01.441Z,44.58
2023-01-13T13:47:36.564Z,44.60
2023-01-13T13:50:20.794Z,44.54
2023-01-13T13:53:09.305Z,44.58
2023-01-13T13:55:36.768Z,44.53
2023-01-13T13:58:04.210Z,44.81
2023-01-13T14:00:35.528Z,44.42
2023-01-13T14:03:28.918Z,44.64
2023-01-13T14:06:00.840Z,44.56
2023-01-13T14:08:30.847Z,44.44
2023-01-13T14:10:58.171Z,44.39
2023-01-13T14:13:30.744Z,44.36
2023-01-13T14:16:00.871Z,44.29
2023-01-13T14:18:30.782Z,44.46
2023-01-13T14:21:13.923Z,44.52
2023-01-13T14:23:52.080Z,44.49
2023-01-13T14:26:27.693Z,44.54
2023-01-13T14:28:56.434Z,44.36
2023-01-13T14:31:24.704Z,44.44
2023-01-13T14:33:54.963Z,44.43
2023-01-13T14:36:36.714Z,44.31
2023-01-13T14:39:03.997Z,44.32
2023-01-13T14:41:47.014Z,44.37
2023-01-13T14:44:28.110Z,44.33
2023-01-13T14:46:59.065Z,44.41
2023-01-13T14:49:31.891Z,44.33
2023-01-13T14:52:09.820Z,44.31
2023-01-13T14:54:52.080Z,44.47
2023-01-13T14:57:31.938Z,44.53
2023-01-13T15:00:13.493Z,44.33
2023-01-13T15:02:59.065Z,44.34
2023-01-13T15:05:26.384Z,44.35
2023-01-13T15:08:00.059Z,44.52
2023-01-13T15:10:38.938Z,45.97
2023-01-13T15:13:07.860Z,46.75
2023-01-13T15:15:37.843Z,47.36
2023-01-13T15:18:13.946Z,47.61
2023-01-13T15:20:42.289Z,47.63
2023-01-13T15:23:10.050Z,47.61
2023-01-13T15:25:43.009Z,47.35
2023-01-13T15:28:18.997Z,47.35
2023-01-13T15:30:47.328Z,47.29
2023-01-13T15:33:15.779Z,47.47
2023-01-13T15:35:46.927Z,47.24
2023-01-13T15:38:23.762Z,47.27
2023-01-13T15:40:52.713Z,47.24
2023-01-13T15:43:40.675Z,47.01
2023-01-13T15:46:38.989Z,47.12
2023-01-13T15:49:15.034Z,46.99
2023-01-13T15:51:44.215Z,46.95
2023-01-13T15:54:12.057Z,46.91
2023-01-13T15:56:39.606Z,46.82
2023-01-13T15:59:15.947Z,46.85
2023-01-13T16:01:43.966Z,46.91
2023-01-13T16:04:11.201Z,46.68
2023-01-13T16:06:38.526Z,46.65
2023-01-13T16:09:06.255Z,46.81
2023-01-13T16:11:33.496Z,46.57
2023-01-13T16:14:00.804Z,46.54
2023-01-13T16:16:28.827Z,46.59
2023-01-13T16:18:56.509Z,46.48
2023-01-13T16:21:24.587Z,46.49
2023-01-13T16:23:52.291Z,46.51
2023-01-13T16:26:25.774Z,46.17
2023-01-13T16:28:56.124Z,46.38
2023-01-13T16:31:32.014Z,46.24
2023-01-13T16:34:01.387Z,46.25
2023-01-13T16:36:30.386Z,46.22
2023-01-13T16:38:57.702Z,46.15
2023-01-13T16:41:25.261Z,46.20
2023-01-13T16:43:53.393Z,46.18
2023-01-13T16:46:26.282Z,46.18
2023-01-13T16:48:57.168Z,46.26
2023-01-13T16:51:24.781Z,46.15
2023-01-13T16:53:52.138Z,46.19
2023-01-13T16:56:28.271Z,46.05
2023-01-13T16:58:57.758Z,46.18
2023-01-13T17:01:30.826Z,46.01
2023-01-13T17:03:58.856Z,45.92
2023-01-13T17:06:35.556Z,45.99
2023-01-13T17:09:17.360Z,45.90
2023-01-13T17:11:45.026Z,45.69
2023-01-13T17:14:19.315Z,45.94
2023-01-13T17:16:47.828Z,45.95
2023-01-13T17:19:15.501Z,45.86
2023-01-13T17:21:42.845Z,45.73
2023-01-13T17:24:12.283Z,45.89
2023-01-13T17:26:47.524Z,45.80
2023-01-13T17:29:21.863Z,45.78
2023-01-13T17:31:50.479Z,45.81
2023-01-13T17:34:18.709Z,45.67
2023-01-13T17:36:46.139Z,45.84
2023-01-13T17:39:16.612Z,45.88
2023-01-13T17:41:44.667Z,45.67
2023-01-13T17:44:17.144Z,45.71
2023-01-13T17:46:45.390Z,45.56
2023-01-13T17:49:13.761Z,45.51
2023-01-13T17:51:41.176Z,45.47
2023-01-13T17:54:12.363Z,45.41
2023-01-13T17:56:43.203Z,45.50
2023-01-13T17:59:15.264Z,45.42
2023-01-13T18:01:42.797Z,45.45
2023-01-13T18:04:16.553Z,45.46
2023-01-13T18:06:44.414Z,45.42
2023-01-13T18:09:12.436Z,45.17
2023-01-13T18:11:39.793Z,44.61
2023-01-13T18:14:07.165Z,45.28
2023-01-13T18:16:34.856Z,45.42
2023-01-13T18:19:20.935Z,45.38
2023-01-13T18:22:06.923Z,45.57
2023-01-13T18:24:53.023Z,45.24
2023-01-13T18:27:27.348Z,44.89
2023-01-13T18:29:58.325Z,45.29
2023-01-13T18:32:31.921Z,45.47
2023-01-13T18:35:06.114Z,45.39
2023-01-13T18:37:38.832Z,45.39
2023-01-13T18:40:09.308Z,45.28
2023-01-13T18:42:53.736Z,45.32
2023-01-13T18:45:27.145Z,45.49
2023-01-13T18:47:58.769Z,45.21
2023-01-13T18:50:27.135Z,45.17
2023-01-13T18:52:54.570Z,45.16
2023-01-13T18:55:22.128Z,45.32
2023-01-13T18:57:54.277Z,45.32
2023-01-13T19:00:23.036Z,45.36
2023-01-13T19:05:34.948Z,45.14
2023-01-13T19:08:02.537Z,45.23
2023-01-13T19:10:32.345Z,45.19
2023-01-13T19:13:01.391Z,45.42
2023-01-13T19:15:28.781Z,45.19
2023-01-13T19:17:56.231Z,45.32
2023-01-13T19:20:23.514Z,45.12
2023-01-13T19:22:54.289Z,45.21
2023-01-13T19:25:21.884Z,45.24
2023-01-13T19:27:49.239Z,45.34
2023-01-13T19:30:17.533Z,45.20
2023-01-13T19:32:44.826Z,45.37
2023-01-13T19:35:14.101Z,45.32
2023-01-13T19:37:43.683Z,45.35
2023-01-13T19:40:13.880Z,45.38
2023-01-13T19:43:01.935Z,45.39
2023-01-13T19:45:32.046Z,45.33
2023-01-13T19:48:05.061Z,45.45
2023-01-13T19:50:36.561Z,45.40
2023-01-13T19:53:04.108Z,45.28
2023-01-13T19:55:32.105Z,45.33
2023-01-13T19:57:59.439Z,45.59
2023-01-13T20:00:27.004Z,45.36
2023-01-13T20:02:56.687Z,45.29
2023-01-13T20:05:26.023Z,45.44
2023-01-13T20:07:53.969Z,45.40
2023-01-13T20:10:23.200Z,45.33
2023-01-13T20:12:50.502Z,45.28
2023-01-13T20:15:17.807Z,45.36
2023-01-13T20:17:45.120Z,45.42
2023-01-13T20:20:13.657Z,45.41
2023-01-13T20:22:41.483Z,45.33
2023-01-13T20:25:09.423Z,45.36
2023-01-13T20:27:37.037Z,45.17
2023-01-13T20:30:09.539Z,45.28
2023-01-13T20:32:37.198Z,45.42
2023-01-13T20:35:05.481Z,45.43
2023-01-13T20:37:33.645Z,45.11
2023-01-13T20:40:01.841Z,45.23
2023-01-13T20:42:34.251Z,45.15
2023-01-13T20:45:01.721Z,45.22
2023-01-13T20:47:30.179Z,45.15
2023-01-13T20:49:57.621Z,45.01
2023-01-13T20:52:25.112Z,45.04
2023-01-13T20:54:52.356Z,44.99
2023-01-13T20:57:19.741Z,45.05
2023-01-13T20:59:47.164Z,45.06
2023-01-13T21:02:16.155Z,44.92
2023-01-13T21:04:44.063Z,45.04
2023-01-13T21:07:11.463Z,44.83
2023-01-13T21:09:38.686Z,44.84
2023-01-13T21:12:25.226Z,44.86
2023-01-13T21:15:10.827Z,44.77
2023-01-13T21:17:57.258Z,45.03
2023-01-13T21:20:24.564Z,45.05
2023-01-13T21:22:51.902Z,44.92
2023-01-13T21:25:19.986Z,45.03
2023-01-13T21:27:48.101Z,45.03
2023-01-13T21:30:17.271Z,45.04
2023-01-13T21:32:45.648Z,45.03
2023-01-13T21:35:14.249Z,45.02
2023-01-13T21:37:44.248Z,45.11
2023-01-13T21:40:13.766Z,45.00
2023-01-13T21:42:59.670Z,44.98
2023-01-13T21:45:45.961Z,45.06
2023-01-13T21:48:13.233Z,45.13
2023-01-13T21:50:40.945Z,45.05
2023-01-13T21:53:08.373Z,45.25
2023-01-13T21:55:36.915Z,45.20
2023-01-13T21:58:13.417Z,45.33
2023-01-13T22:00:42.640Z,45.04
2023-01-13T22:03:12.122Z,45.14
2023-01-13T22:05:40.142Z,45.21
2023-01-13T22:08:07.548Z,45.19
2023-01-13T22:10:35.219Z,45.17
2023-01-13T22:13:23.584Z,45.25
2023-01-13T22:15:51.002Z,45.20
2023-01-13T22:18:18.479Z,45.25
2023-01-13T22:20:46.031Z,44.90
2023-01-13T22:23:13.685Z,44.94
2023-01-13T22:25:40.959Z,44.39
2023-01-13T22:28:09.428Z,44.95
2023-01-13T22:30:36.910Z,45.06
2023-01-13T22:33:04.130Z,45.02
2023-01-13T22:35:31.403Z,44.86
2023-01-13T22:38:00.914Z,44.65
2023-01-13T22:40:28.186Z,44.53
2023-01-13T22:42:55.469Z,44.57
2023-01-13T22:45:22.852Z,44.98
2023-01-13T22:47:50.159Z,45.20
2023-01-13T22:50:20.757Z,44.81
2023-01-13T22:52:48.152Z,44.67
2023-01-13T22:55:15.568Z,44.94
2023-01-13T22:57:47.971Z,44.84
2023-01-13T23:00:19.065Z,44.79
2023-01-13T23:02:46.912Z,44.82
2023-01-13T23:05:14.291Z,44.25
2023-01-13T23:07:41.585Z,44.74
2023-01-13T23:10:09.480Z,44.28
2023-01-13T23:12:37.015Z,45.09
2023-01-13T23:15:05.314Z,44.72
2023-01-13T23:17:32.722Z,45.01
2023-01-13T23:19:59.953Z,44.07
2023-01-13T23:22:27.359Z,43.93
2023-01-13T23:24:54.661Z,44.13
2023-01-13T23:27:21.932Z,43.96
2023-01-13T23:29:49.427Z,43.89
2023-01-13T23:32:16.651Z,43.88
2023-01-13T23:34:43.855Z,43.78
2023-01-13T23:37:11.101Z,43.68
2023-01-13T23:39:38.349Z,43.50
2023-01-13T23:42:05.643Z,43.78
2023-01-13T23:44:32.943Z,43.49
2023-01-13T23:47:00.253Z,43.70
2023-01-13T23:49:27.557Z,43.47
2023-01-13T23:51:55.023Z,43.89
2023-01-13T23:54:22.472Z,43.95
2023-01-13T23:56:52.497Z,43.84
2023-01-13T23:59:20.917Z,44.07
